sensor_id;sensor_type;location;lat;lon;timestamp;P1;durP1;ratioP1;P2;durP2;ratioP2
51382;SDS011;37475;43.358;1.248;2023-10-31T00:02:16;9.98;;;6.10;;
51382;SDS011;37475;43.358;1.248;2023-10-31T00:04:41;10.15;;;6.70;;
51382;SDS011;37475;43.358;1.248;2023-10-31T00:07:07;12.85;;;7.50;;
51382;SDS011;37475;43.358;1.248;2023-10-31T00:09:33;14.82;;;7.88;;
51382;SDS011;37475;43.358;1.248;2023-10-31T00:11:59;12.38;;;7.65;;
51382;SDS011;37475;43.358;1.248;2023-10-31T00:14:25;13.48;;;8.02;;
51382;SDS011;37475;43.358;1.248;2023-10-31T00:16:51;13.43;;;7.50;;
51382;SDS011;37475;43.358;1.248;2023-10-31T00:19:16;11.20;;;7.57;;
51382;SDS011;37475;43.358;1.248;2023-10-31T00:21:43;12.93;;;7.65;;
51382;SDS011;37475;43.358;1.248;2023-10-31T00:24:09;11.25;;;7.80;;
51382;SDS011;37475;43.358;1.248;2023-10-31T00:26:35;11.40;;;7.00;;
51382;SDS011;37475;43.358;1.248;2023-10-31T00:29:00;11.95;;;6.38;;
51382;SDS011;37475;43.358;1.248;2023-10-31T00:31:26;10.80;;;6.38;;
51382;SDS011;37475;43.358;1.248;2023-10-31T00:33:52;9.73;;;5.55;;
51382;SDS011;37475;43.358;1.248;2023-10-31T00:36:17;10.73;;;5.53;;
51382;SDS011;37475;43.358;1.248;2023-10-31T00:38:43;9.25;;;5.47;;
51382;SDS011;37475;43.358;1.248;2023-10-31T00:41:09;9.70;;;4.97;;
51382;SDS011;37475;43.358;1.248;2023-10-31T00:43:35;9.23;;;5.00;;
51382;SDS011;37475;43.358;1.248;2023-10-31T00:46:02;7.22;;;4.90;;
51382;SDS011;37475;43.358;1.248;2023-10-31T00:48:28;9.57;;;4.47;;
51382;SDS011;37475;43.358;1.248;2023-10-31T00:50:54;7.60;;;4.47;;
51382;SDS011;37475;43.358;1.248;2023-10-31T00:53:20;7.25;;;4.25;;
51382;SDS011;37475;43.358;1.248;2023-10-31T00:55:46;8.18;;;4.28;;
51382;SDS011;37475;43.358;1.248;2023-10-31T00:58:11;5.65;;;3.97;;
51382;SDS011;37475;43.358;1.248;2023-10-31T01:00:37;6.93;;;4.00;;
51382;SDS011;37475;43.358;1.248;2023-10-31T01:03:03;8.65;;;4.25;;
51382;SDS011;37475;43.358;1.248;2023-10-31T01:05:29;8.13;;;4.07;;
51382;SDS011;37475;43.358;1.248;2023-10-31T01:07:55;5.55;;;3.72;;
51382;SDS011;37475;43.358;1.248;2023-10-31T01:10:21;8.13;;;3.63;;
51382;SDS011;37475;43.358;1.248;2023-10-31T01:12:46;7.15;;;4.00;;
51382;SDS011;37475;43.358;1.248;2023-10-31T01:15:12;7.70;;;3.65;;
51382;SDS011;37475;43.358;1.248;2023-10-31T01:17:38;5.35;;;3.83;;
51382;SDS011;37475;43.358;1.248;2023-10-31T01:20:04;8.10;;;4.00;;
51382;SDS011;37475;43.358;1.248;2023-10-31T01:22:31;6.88;;;4.38;;
51382;SDS011;37475;43.358;1.248;2023-10-31T01:24:57;9.65;;;4.15;;
51382;SDS011;37475;43.358;1.248;2023-10-31T01:27:22;7.40;;;3.92;;
51382;SDS011;37475;43.358;1.248;2023-10-31T01:29:48;7.32;;;4.45;;
51382;SDS011;37475;43.358;1.248;2023-10-31T01:32:14;7.75;;;3.92;;
51382;SDS011;37475;43.358;1.248;2023-10-31T01:34:40;7.93;;;4.70;;
51382;SDS011;37475;43.358;1.248;2023-10-31T01:37:05;6.88;;;4.40;;
51382;SDS011;37475;43.358;1.248;2023-10-31T01:39:31;6.85;;;3.92;;
51382;SDS011;37475;43.358;1.248;2023-10-31T01:41:57;7.07;;;3.95;;
51382;SDS011;37475;43.358;1.248;2023-10-31T01:44:23;8.18;;;4.32;;
51382;SDS011;37475;43.358;1.248;2023-10-31T01:46:49;6.80;;;4.00;;
51382;SDS011;37475;43.358;1.248;2023-10-31T01:49:14;9.18;;;4.10;;
51382;SDS011;37475;43.358;1.248;2023-10-31T01:51:41;5.60;;;3.53;;
51382;SDS011;37475;43.358;1.248;2023-10-31T01:54:08;6.85;;;3.47;;
51382;SDS011;37475;43.358;1.248;2023-10-31T01:56:35;5.88;;;3.90;;
51382;SDS011;37475;43.358;1.248;2023-10-31T01:59:01;6.68;;;3.40;;
51382;SDS011;37475;43.358;1.248;2023-10-31T02:01:29;7.22;;;3.22;;
51382;SDS011;37475;43.358;1.248;2023-10-31T02:03:55;5.20;;;3.25;;
51382;SDS011;37475;43.358;1.248;2023-10-31T02:06:21;9.45;;;3.40;;
51382;SDS011;37475;43.358;1.248;2023-10-31T02:08:47;7.22;;;3.05;;
51382;SDS011;37475;43.358;1.248;2023-10-31T02:11:13;6.20;;;3.00;;
51382;SDS011;37475;43.358;1.248;2023-10-31T02:13:39;5.78;;;3.40;;
51382;SDS011;37475;43.358;1.248;2023-10-31T02:16:05;7.93;;;3.80;;
51382;SDS011;37475;43.358;1.248;2023-10-31T02:18:32;8.77;;;3.90;;
51382;SDS011;37475;43.358;1.248;2023-10-31T02:20:58;6.65;;;3.83;;
51382;SDS011;37475;43.358;1.248;2023-10-31T02:23:24;6.90;;;3.10;;
51382;SDS011;37475;43.358;1.248;2023-10-31T02:25:50;9.63;;;3.88;;
51382;SDS011;37475;43.358;1.248;2023-10-31T02:28:16;9.52;;;3.50;;
51382;SDS011;37475;43.358;1.248;2023-10-31T02:30:41;7.07;;;3.22;;
51382;SDS011;37475;43.358;1.248;2023-10-31T02:33:07;7.88;;;3.45;;
51382;SDS011;37475;43.358;1.248;2023-10-31T02:35:33;5.20;;;2.95;;
51382;SDS011;37475;43.358;1.248;2023-10-31T02:37:59;5.00;;;2.60;;
51382;SDS011;37475;43.358;1.248;2023-10-31T02:40:25;5.05;;;3.13;;
51382;SDS011;37475;43.358;1.248;2023-10-31T02:42:51;5.18;;;3.00;;
51382;SDS011;37475;43.358;1.248;2023-10-31T02:45:16;6.20;;;2.95;;
51382;SDS011;37475;43.358;1.248;2023-10-31T02:47:43;6.43;;;3.00;;
51382;SDS011;37475;43.358;1.248;2023-10-31T02:50:09;7.70;;;3.10;;
51382;SDS011;37475;43.358;1.248;2023-10-31T02:52:35;6.15;;;3.25;;
51382;SDS011;37475;43.358;1.248;2023-10-31T02:55:01;9.38;;;3.60;;
51382;SDS011;37475;43.358;1.248;2023-10-31T02:57:27;6.63;;;3.58;;
51382;SDS011;37475;43.358;1.248;2023-10-31T02:59:52;6.60;;;3.60;;
51382;SDS011;37475;43.358;1.248;2023-10-31T03:02:18;6.32;;;3.50;;
51382;SDS011;37475;43.358;1.248;2023-10-31T03:04:44;6.13;;;3.33;;
51382;SDS011;37475;43.358;1.248;2023-10-31T03:07:10;7.30;;;3.50;;
51382;SDS011;37475;43.358;1.248;2023-10-31T03:09:36;8.73;;;3.45;;
51382;SDS011;37475;43.358;1.248;2023-10-31T03:12:02;6.82;;;3.25;;
51382;SDS011;37475;43.358;1.248;2023-10-31T03:14:28;7.05;;;3.00;;
51382;SDS011;37475;43.358;1.248;2023-10-31T03:16:54;6.50;;;3.22;;
51382;SDS011;37475;43.358;1.248;2023-10-31T03:19:19;9.18;;;3.53;;
51382;SDS011;37475;43.358;1.248;2023-10-31T03:21:45;7.07;;;3.50;;
51382;SDS011;37475;43.358;1.248;2023-10-31T03:24:11;7.85;;;3.13;;
51382;SDS011;37475;43.358;1.248;2023-10-31T03:26:37;6.15;;;3.15;;
51382;SDS011;37475;43.358;1.248;2023-10-31T03:29:02;9.60;;;3.55;;
51382;SDS011;37475;43.358;1.248;2023-10-31T03:31:28;8.57;;;3.53;;
51382;SDS011;37475;43.358;1.248;2023-10-31T03:33:54;7.72;;;3.13;;
51382;SDS011;37475;43.358;1.248;2023-10-31T03:36:20;4.88;;;2.80;;
51382;SDS011;37475;43.358;1.248;2023-10-31T03:38:46;5.95;;;2.78;;
51382;SDS011;37475;43.358;1.248;2023-10-31T03:41:12;6.82;;;2.70;;
51382;SDS011;37475;43.358;1.248;2023-10-31T03:43:38;6.18;;;2.65;;
51382;SDS011;37475;43.358;1.248;2023-10-31T03:46:04;8.15;;;2.40;;
51382;SDS011;37475;43.358;1.248;2023-10-31T03:48:30;9.77;;;3.00;;
51382;SDS011;37475;43.358;1.248;2023-10-31T03:50:56;9.45;;;2.97;;
51382;SDS011;37475;43.358;1.248;2023-10-31T03:53:22;11.57;;;3.88;;
51382;SDS011;37475;43.358;1.248;2023-10-31T03:55:48;8.13;;;3.47;;
51382;SDS011;37475;43.358;1.248;2023-10-31T03:58:14;10.88;;;3.55;;
51382;SDS011;37475;43.358;1.248;2023-10-31T04:00:39;8.73;;;3.35;;
51382;SDS011;37475;43.358;1.248;2023-10-31T04:03:06;9.02;;;3.75;;
51382;SDS011;37475;43.358;1.248;2023-10-31T04:05:33;7.20;;;3.50;;
51382;SDS011;37475;43.358;1.248;2023-10-31T04:07:59;8.63;;;3.50;;
51382;SDS011;37475;43.358;1.248;2023-10-31T04:10:25;9.52;;;3.63;;
51382;SDS011;37475;43.358;1.248;2023-10-31T04:12:51;12.00;;;3.67;;
51382;SDS011;37475;43.358;1.248;2023-10-31T04:15:17;9.10;;;3.58;;
51382;SDS011;37475;43.358;1.248;2023-10-31T04:17:42;8.18;;;3.28;;
51382;SDS011;37475;43.358;1.248;2023-10-31T04:20:08;10.18;;;3.63;;
51382;SDS011;37475;43.358;1.248;2023-10-31T04:22:35;12.57;;;3.50;;
51382;SDS011;37475;43.358;1.248;2023-10-31T04:25:00;9.20;;;3.90;;
51382;SDS011;37475;43.358;1.248;2023-10-31T04:27:26;6.30;;;3.30;;
51382;SDS011;37475;43.358;1.248;2023-10-31T04:29:52;11.98;;;3.55;;
51382;SDS011;37475;43.358;1.248;2023-10-31T04:32:18;11.05;;;3.13;;
51382;SDS011;37475;43.358;1.248;2023-10-31T04:34:44;6.07;;;2.58;;
51382;SDS011;37475;43.358;1.248;2023-10-31T04:37:10;7.28;;;2.50;;
51382;SDS011;37475;43.358;1.248;2023-10-31T04:39:36;5.28;;;2.70;;
51382;SDS011;37475;43.358;1.248;2023-10-31T04:42:01;6.28;;;2.15;;
51382;SDS011;37475;43.358;1.248;2023-10-31T04:44:27;7.15;;;2.58;;
51382;SDS011;37475;43.358;1.248;2023-10-31T04:46:53;5.32;;;2.47;;
51382;SDS011;37475;43.358;1.248;2023-10-31T04:49:19;5.88;;;2.10;;
51382;SDS011;37475;43.358;1.248;2023-10-31T04:51:45;11.02;;;2.47;;
51382;SDS011;37475;43.358;1.248;2023-10-31T04:54:11;5.18;;;2.25;;
51382;SDS011;37475;43.358;1.248;2023-10-31T04:56:37;4.10;;;2.17;;
51382;SDS011;37475;43.358;1.248;2023-10-31T04:59:02;7.50;;;2.10;;
51382;SDS011;37475;43.358;1.248;2023-10-31T05:01:29;13.65;;;2.95;;
51382;SDS011;37475;43.358;1.248;2023-10-31T05:03:54;5.00;;;2.05;;
51382;SDS011;37475;43.358;1.248;2023-10-31T05:06:20;6.57;;;2.20;;
51382;SDS011;37475;43.358;1.248;2023-10-31T05:08:47;11.70;;;2.58;;
51382;SDS011;37475;43.358;1.248;2023-10-31T05:11:18;4.85;;;2.30;;
51382;SDS011;37475;43.358;1.248;2023-10-31T05:13:44;6.38;;;2.40;;
51382;SDS011;37475;43.358;1.248;2023-10-31T05:16:10;7.93;;;2.70;;
51382;SDS011;37475;43.358;1.248;2023-10-31T05:18:37;6.05;;;2.35;;
51382;SDS011;37475;43.358;1.248;2023-10-31T05:21:04;5.78;;;2.20;;
51382;SDS011;37475;43.358;1.248;2023-10-31T05:23:30;7.82;;;2.35;;
51382;SDS011;37475;43.358;1.248;2023-10-31T05:25:56;8.35;;;2.17;;
51382;SDS011;37475;43.358;1.248;2023-10-31T05:28:22;6.47;;;2.25;;
51382;SDS011;37475;43.358;1.248;2023-10-31T05:30:48;7.25;;;2.22;;
51382;SDS011;37475;43.358;1.248;2023-10-31T05:33:15;6.57;;;2.15;;
51382;SDS011;37475;43.358;1.248;2023-10-31T05:35:41;4.82;;;2.42;;
51382;SDS011;37475;43.358;1.248;2023-10-31T05:38:07;5.90;;;2.30;;
51382;SDS011;37475;43.358;1.248;2023-10-31T05:40:33;6.18;;;2.08;;
51382;SDS011;37475;43.358;1.248;2023-10-31T05:43:02;5.30;;;2.00;;
51382;SDS011;37475;43.358;1.248;2023-10-31T05:45:28;7.47;;;2.10;;
51382;SDS011;37475;43.358;1.248;2023-10-31T05:47:55;4.93;;;2.08;;
51382;SDS011;37475;43.358;1.248;2023-10-31T05:50:21;4.10;;;1.90;;
51382;SDS011;37475;43.358;1.248;2023-10-31T05:52:46;4.43;;;1.95;;
51382;SDS011;37475;43.358;1.248;2023-10-31T05:55:12;4.70;;;1.70;;
51382;SDS011;37475;43.358;1.248;2023-10-31T05:57:38;5.80;;;1.70;;
51382;SDS011;37475;43.358;1.248;2023-10-31T06:00:04;4.70;;;1.70;;
51382;SDS011;37475;43.358;1.248;2023-10-31T06:02:32;2.65;;;1.42;;
51382;SDS011;37475;43.358;1.248;2023-10-31T06:04:58;3.33;;;1.73;;
51382;SDS011;37475;43.358;1.248;2023-10-31T06:07:24;3.60;;;1.50;;
51382;SDS011;37475;43.358;1.248;2023-10-31T06:09:50;5.57;;;1.60;;
51382;SDS011;37475;43.358;1.248;2023-10-31T06:12:15;4.78;;;1.52;;
51382;SDS011;37475;43.358;1.248;2023-10-31T06:14:42;3.38;;;1.58;;
51382;SDS011;37475;43.358;1.248;2023-10-31T06:17:08;3.58;;;1.35;;
51382;SDS011;37475;43.358;1.248;2023-10-31T06:19:37;4.00;;;1.48;;
51382;SDS011;37475;43.358;1.248;2023-10-31T06:22:03;6.38;;;2.10;;
51382;SDS011;37475;43.358;1.248;2023-10-31T06:24:29;3.80;;;1.52;;
51382;SDS011;37475;43.358;1.248;2023-10-31T06:26:55;6.50;;;1.48;;
51382;SDS011;37475;43.358;1.248;2023-10-31T06:29:20;3.72;;;1.42;;
51382;SDS011;37475;43.358;1.248;2023-10-31T06:31:46;3.35;;;1.50;;
51382;SDS011;37475;43.358;1.248;2023-10-31T06:34:12;3.33;;;1.60;;
51382;SDS011;37475;43.358;1.248;2023-10-31T06:36:38;6.47;;;1.88;;
51382;SDS011;37475;43.358;1.248;2023-10-31T06:39:04;6.72;;;1.70;;
51382;SDS011;37475;43.358;1.248;2023-10-31T06:41:30;5.00;;;1.80;;
51382;SDS011;37475;43.358;1.248;2023-10-31T06:43:55;5.70;;;1.67;;
51382;SDS011;37475;43.358;1.248;2023-10-31T06:46:21;5.25;;;1.92;;
51382;SDS011;37475;43.358;1.248;2023-10-31T06:48:47;5.40;;;2.13;;
51382;SDS011;37475;43.358;1.248;2023-10-31T06:51:12;4.40;;;1.70;;
51382;SDS011;37475;43.358;1.248;2023-10-31T06:53:38;5.70;;;1.70;;
51382;SDS011;37475;43.358;1.248;2023-10-31T06:56:04;5.90;;;1.80;;
51382;SDS011;37475;43.358;1.248;2023-10-31T06:58:30;5.80;;;1.83;;
51382;SDS011;37475;43.358;1.248;2023-10-31T07:00:56;5.47;;;1.90;;
51382;SDS011;37475;43.358;1.248;2023-10-31T07:03:23;5.55;;;1.80;;
51382;SDS011;37475;43.358;1.248;2023-10-31T07:05:49;4.82;;;1.67;;
51382;SDS011;37475;43.358;1.248;2023-10-31T07:08:14;4.50;;;1.88;;
51382;SDS011;37475;43.358;1.248;2023-10-31T07:10:40;3.30;;;1.60;;
51382;SDS011;37475;43.358;1.248;2023-10-31T07:13:06;4.53;;;1.50;;
51382;SDS011;37475;43.358;1.248;2023-10-31T07:15:32;6.55;;;1.83;;
51382;SDS011;37475;43.358;1.248;2023-10-31T07:17:57;5.00;;;1.67;;
51382;SDS011;37475;43.358;1.248;2023-10-31T07:20:23;3.10;;;1.45;;
51382;SDS011;37475;43.358;1.248;2023-10-31T07:22:49;4.03;;;1.92;;
51382;SDS011;37475;43.358;1.248;2023-10-31T07:25:15;3.47;;;1.75;;
51382;SDS011;37475;43.358;1.248;2023-10-31T07:27:41;4.45;;;1.60;;
51382;SDS011;37475;43.358;1.248;2023-10-31T07:30:07;5.50;;;2.10;;
51382;SDS011;37475;43.358;1.248;2023-10-31T07:32:33;4.78;;;1.98;;
51382;SDS011;37475;43.358;1.248;2023-10-31T07:34:58;4.15;;;1.83;;
51382;SDS011;37475;43.358;1.248;2023-10-31T07:37:24;5.57;;;2.00;;
51382;SDS011;37475;43.358;1.248;2023-10-31T07:39:50;5.05;;;1.80;;
51382;SDS011;37475;43.358;1.248;2023-10-31T07:42:16;4.53;;;2.20;;
51382;SDS011;37475;43.358;1.248;2023-10-31T07:44:42;5.25;;;2.45;;
51382;SDS011;37475;43.358;1.248;2023-10-31T07:47:07;7.25;;;2.60;;
51382;SDS011;37475;43.358;1.248;2023-10-31T07:49:33;5.78;;;2.10;;
51382;SDS011;37475;43.358;1.248;2023-10-31T07:51:59;6.50;;;1.90;;
51382;SDS011;37475;43.358;1.248;2023-10-31T07:54:25;4.78;;;2.08;;
51382;SDS011;37475;43.358;1.248;2023-10-31T07:56:50;5.85;;;2.30;;
51382;SDS011;37475;43.358;1.248;2023-10-31T07:59:17;6.47;;;2.30;;
51382;SDS011;37475;43.358;1.248;2023-10-31T08:01:43;4.18;;;1.70;;
51382;SDS011;37475;43.358;1.248;2023-10-31T08:04:09;4.97;;;1.85;;
51382;SDS011;37475;43.358;1.248;2023-10-31T08:06:35;3.03;;;1.48;;
51382;SDS011;37475;43.358;1.248;2023-10-31T08:09:00;5.65;;;1.63;;
51382;SDS011;37475;43.358;1.248;2023-10-31T08:11:27;4.93;;;1.60;;
51382;SDS011;37475;43.358;1.248;2023-10-31T08:13:52;4.00;;;1.50;;
51382;SDS011;37475;43.358;1.248;2023-10-31T08:16:19;3.80;;;1.50;;
51382;SDS011;37475;43.358;1.248;2023-10-31T08:18:45;5.07;;;1.50;;
51382;SDS011;37475;43.358;1.248;2023-10-31T08:21:11;5.50;;;1.33;;
51382;SDS011;37475;43.358;1.248;2023-10-31T08:23:37;3.97;;;1.20;;
51382;SDS011;37475;43.358;1.248;2023-10-31T08:26:04;4.57;;;1.20;;
51382;SDS011;37475;43.358;1.248;2023-10-31T08:28:30;4.78;;;1.23;;
51382;SDS011;37475;43.358;1.248;2023-10-31T08:30:56;4.18;;;1.10;;
51382;SDS011;37475;43.358;1.248;2023-10-31T08:33:22;4.72;;;1.00;;
51382;SDS011;37475;43.358;1.248;2023-10-31T08:35:48;4.28;;;1.17;;
51382;SDS011;37475;43.358;1.248;2023-10-31T08:38:15;4.50;;;1.13;;
51382;SDS011;37475;43.358;1.248;2023-10-31T08:40:41;4.68;;;1.30;;
51382;SDS011;37475;43.358;1.248;2023-10-31T08:43:07;3.58;;;1.35;;
51382;SDS011;37475;43.358;1.248;2023-10-31T08:45:33;5.68;;;1.50;;
51382;SDS011;37475;43.358;1.248;2023-10-31T08:47:59;3.63;;;1.35;;
51382;SDS011;37475;43.358;1.248;2023-10-31T08:50:25;4.10;;;1.15;;
51382;SDS011;37475;43.358;1.248;2023-10-31T08:52:51;4.93;;;1.55;;
51382;SDS011;37475;43.358;1.248;2023-10-31T08:55:17;5.03;;;1.42;;
51382;SDS011;37475;43.358;1.248;2023-10-31T08:57:43;6.22;;;1.42;;
51382;SDS011;37475;43.358;1.248;2023-10-31T09:00:09;4.13;;;1.05;;
51382;SDS011;37475;43.358;1.248;2023-10-31T09:02:35;3.35;;;0.93;;
51382;SDS011;37475;43.358;1.248;2023-10-31T09:05:01;7.28;;;1.30;;
51382;SDS011;37475;43.358;1.248;2023-10-31T09:07:27;3.38;;;0.90;;
51382;SDS011;37475;43.358;1.248;2023-10-31T09:09:53;4.53;;;0.90;;
51382;SDS011;37475;43.358;1.248;2023-10-31T09:12:19;3.88;;;0.85;;
51382;SDS011;37475;43.358;1.248;2023-10-31T09:14:46;2.92;;;0.80;;
51382;SDS011;37475;43.358;1.248;2023-10-31T09:17:12;3.95;;;0.90;;
51382;SDS011;37475;43.358;1.248;2023-10-31T09:19:38;2.95;;;0.82;;
51382;SDS011;37475;43.358;1.248;2023-10-31T09:22:03;6.50;;;0.90;;
51382;SDS011;37475;43.358;1.248;2023-10-31T09:24:29;4.38;;;0.70;;
51382;SDS011;37475;43.358;1.248;2023-10-31T09:26:55;3.50;;;0.90;;
51382;SDS011;37475;43.358;1.248;2023-10-31T09:29:21;4.25;;;0.98;;
51382;SDS011;37475;43.358;1.248;2023-10-31T09:31:46;3.42;;;0.80;;
51382;SDS011;37475;43.358;1.248;2023-10-31T09:34:13;5.95;;;0.90;;
51382;SDS011;37475;43.358;1.248;2023-10-31T09:36:39;2.80;;;0.98;;
51382;SDS011;37475;43.358;1.248;2023-10-31T09:39:05;4.68;;;0.90;;
51382;SDS011;37475;43.358;1.248;2023-10-31T09:41:31;6.47;;;0.98;;
51382;SDS011;37475;43.358;1.248;2023-10-31T09:44:00;3.78;;;0.80;;
51382;SDS011;37475;43.358;1.248;2023-10-31T09:46:27;4.47;;;0.80;;
51382;SDS011;37475;43.358;1.248;2023-10-31T09:48:54;6.55;;;0.88;;
51382;SDS011;37475;43.358;1.248;2023-10-31T09:51:21;4.18;;;1.00;;
51382;SDS011;37475;43.358;1.248;2023-10-31T09:53:47;4.30;;;1.05;;
51382;SDS011;37475;43.358;1.248;2023-10-31T09:56:13;7.40;;;0.93;;
51382;SDS011;37475;43.358;1.248;2023-10-31T09:58:40;5.90;;;0.90;;
51382;SDS011;37475;43.358;1.248;2023-10-31T10:01:06;4.85;;;1.00;;
51382;SDS011;37475;43.358;1.248;2023-10-31T10:03:32;4.88;;;0.88;;
51382;SDS011;37475;43.358;1.248;2023-10-31T10:05:59;2.35;;;0.60;;
51382;SDS011;37475;43.358;1.248;2023-10-31T10:08:25;3.08;;;0.73;;
51382;SDS011;37475;43.358;1.248;2023-10-31T10:10:51;5.93;;;1.83;;
51382;SDS011;37475;43.358;1.248;2023-10-31T10:13:17;15.25;;;3.20;;
51382;SDS011;37475;43.358;1.248;2023-10-31T10:15:46;6.53;;;1.35;;
51382;SDS011;37475;43.358;1.248;2023-10-31T10:18:30;10.63;;;4.30;;
51382;SDS011;37475;43.358;1.248;2023-10-31T10:20:58;6.47;;;1.88;;
51382;SDS011;37475;43.358;1.248;2023-10-31T10:23:26;9.73;;;2.90;;
51382;SDS011;37475;43.358;1.248;2023-10-31T10:25:52;8.10;;;2.97;;
51382;SDS011;37475;43.358;1.248;2023-10-31T10:28:20;6.97;;;3.00;;
51382;SDS011;37475;43.358;1.248;2023-10-31T10:30:46;4.18;;;0.63;;
51382;SDS011;37475;43.358;1.248;2023-10-31T10:33:13;2.67;;;0.57;;
51382;SDS011;37475;43.358;1.248;2023-10-31T10:35:39;5.32;;;0.82;;
51382;SDS011;37475;43.358;1.248;2023-10-31T10:38:07;4.93;;;0.88;;
51382;SDS011;37475;43.358;1.248;2023-10-31T10:40:40;3.63;;;0.75;;
51382;SDS011;37475;43.358;1.248;2023-10-31T10:43:12;1.73;;;0.60;;
51382;SDS011;37475;43.358;1.248;2023-10-31T10:45:56;5.68;;;1.58;;
51382;SDS011;37475;43.358;1.248;2023-10-31T10:48:26;4.70;;;1.25;;
51382;SDS011;37475;43.358;1.248;2023-10-31T10:51:07;2.85;;;0.60;;
51382;SDS011;37475;43.358;1.248;2023-10-31T10:53:49;3.85;;;0.80;;
51382;SDS011;37475;43.358;1.248;2023-10-31T10:56:30;3.72;;;0.65;;
51382;SDS011;37475;43.358;1.248;2023-10-31T10:59:07;4.53;;;1.13;;
51382;SDS011;37475;43.358;1.248;2023-10-31T11:01:41;7.88;;;2.08;;
51382;SDS011;37475;43.358;1.248;2023-10-31T11:04:08;3.53;;;0.95;;
51382;SDS011;37475;43.358;1.248;2023-10-31T11:06:35;4.55;;;1.00;;
51382;SDS011;37475;43.358;1.248;2023-10-31T11:09:03;7.28;;;1.20;;
51382;SDS011;37475;43.358;1.248;2023-10-31T11:11:31;5.53;;;1.08;;
51382;SDS011;37475;43.358;1.248;2023-10-31T11:13:58;7.38;;;1.02;;
51382;SDS011;37475;43.358;1.248;2023-10-31T11:16:29;5.55;;;1.25;;
51382;SDS011;37475;43.358;1.248;2023-10-31T11:19:03;8.65;;;1.73;;
51382;SDS011;37475;43.358;1.248;2023-10-31T11:21:30;4.72;;;0.77;;
51382;SDS011;37475;43.358;1.248;2023-10-31T11:23:59;5.28;;;1.10;;
51382;SDS011;37475;43.358;1.248;2023-10-31T11:26:29;3.47;;;1.10;;
51382;SDS011;37475;43.358;1.248;2023-10-31T11:29:06;5.50;;;1.73;;
51382;SDS011;37475;43.358;1.248;2023-10-31T11:31:33;4.93;;;1.05;;
51382;SDS011;37475;43.358;1.248;2023-10-31T11:34:02;6.78;;;1.75;;
51382;SDS011;37475;43.358;1.248;2023-10-31T11:36:32;3.08;;;0.65;;
51382;SDS011;37475;43.358;1.248;2023-10-31T11:39:14;6.15;;;0.90;;
51382;SDS011;37475;43.358;1.248;2023-10-31T11:41:48;5.00;;;1.20;;
51382;SDS011;37475;43.358;1.248;2023-10-31T11:44:17;4.68;;;1.10;;
51382;SDS011;37475;43.358;1.248;2023-10-31T11:46:47;5.25;;;0.98;;
51382;SDS011;37475;43.358;1.248;2023-10-31T11:49:16;3.40;;;0.82;;
51382;SDS011;37475;43.358;1.248;2023-10-31T11:51:44;6.00;;;1.17;;
51382;SDS011;37475;43.358;1.248;2023-10-31T11:54:15;11.23;;;1.25;;
51382;SDS011;37475;43.358;1.248;2023-10-31T11:56:42;5.65;;;1.50;;
51382;SDS011;37475;43.358;1.248;2023-10-31T11:59:17;5.60;;;1.00;;
51382;SDS011;37475;43.358;1.248;2023-10-31T12:01:46;5.50;;;1.10;;
51382;SDS011;37475;43.358;1.248;2023-10-31T12:04:22;5.15;;;1.05;;
51382;SDS011;37475;43.358;1.248;2023-10-31T12:06:56;4.75;;;0.98;;
51382;SDS011;37475;43.358;1.248;2023-10-31T12:09:24;4.93;;;0.80;;
51382;SDS011;37475;43.358;1.248;2023-10-31T12:11:50;4.70;;;0.73;;
51382;SDS011;37475;43.358;1.248;2023-10-31T12:14:18;4.30;;;0.80;;
51382;SDS011;37475;43.358;1.248;2023-10-31T12:16:45;4.45;;;0.90;;
51382;SDS011;37475;43.358;1.248;2023-10-31T12:19:11;4.88;;;1.10;;
51382;SDS011;37475;43.358;1.248;2023-10-31T12:21:38;4.40;;;1.08;;
51382;SDS011;37475;43.358;1.248;2023-10-31T12:24:15;5.45;;;1.10;;
51382;SDS011;37475;43.358;1.248;2023-10-31T12:26:43;6.03;;;1.73;;
51382;SDS011;37475;43.358;1.248;2023-10-31T12:29:10;4.28;;;1.00;;
51382;SDS011;37475;43.358;1.248;2023-10-31T12:34:13;6.63;;;1.17;;
51382;SDS011;37475;43.358;1.248;2023-10-31T12:36:43;5.35;;;0.90;;
51382;SDS011;37475;43.358;1.248;2023-10-31T12:39:11;6.72;;;1.00;;
51382;SDS011;37475;43.358;1.248;2023-10-31T12:41:38;5.47;;;0.90;;
51382;SDS011;37475;43.358;1.248;2023-10-31T12:44:06;4.25;;;0.80;;
51382;SDS011;37475;43.358;1.248;2023-10-31T12:46:38;6.30;;;0.98;;
51382;SDS011;37475;43.358;1.248;2023-10-31T12:49:12;5.00;;;0.88;;
51382;SDS011;37475;43.358;1.248;2023-10-31T12:59:29;3.60;;;0.95;;
51382;SDS011;37475;43.358;1.248;2023-10-31T13:01:56;5.03;;;0.90;;
51382;SDS011;37475;43.358;1.248;2023-10-31T13:04:30;5.35;;;1.13;;
51382;SDS011;37475;43.358;1.248;2023-10-31T13:06:58;5.55;;;1.00;;
51382;SDS011;37475;43.358;1.248;2023-10-31T13:09:31;5.30;;;1.00;;
51382;SDS011;37475;43.358;1.248;2023-10-31T13:12:00;5.97;;;1.17;;
51382;SDS011;37475;43.358;1.248;2023-10-31T13:14:28;4.35;;;0.90;;
51382;SDS011;37475;43.358;1.248;2023-10-31T13:16:55;5.22;;;1.23;;
51382;SDS011;37475;43.358;1.248;2023-10-31T13:19:20;4.35;;;0.82;;
51382;SDS011;37475;43.358;1.248;2023-10-31T13:21:47;4.25;;;1.20;;
51382;SDS011;37475;43.358;1.248;2023-10-31T13:24:13;5.05;;;0.90;;
51382;SDS011;37475;43.358;1.248;2023-10-31T13:26:39;5.00;;;1.20;;
51382;SDS011;37475;43.358;1.248;2023-10-31T13:29:05;7.18;;;1.20;;
51382;SDS011;37475;43.358;1.248;2023-10-31T13:31:31;5.47;;;1.23;;
51382;SDS011;37475;43.358;1.248;2023-10-31T13:33:56;4.55;;;1.00;;
51382;SDS011;37475;43.358;1.248;2023-10-31T13:36:22;6.93;;;1.10;;
51382;SDS011;37475;43.358;1.248;2023-10-31T13:38:49;4.43;;;1.02;;
51382;SDS011;37475;43.358;1.248;2023-10-31T13:41:15;5.22;;;1.15;;
51382;SDS011;37475;43.358;1.248;2023-10-31T13:43:40;8.13;;;1.13;;
51382;SDS011;37475;43.358;1.248;2023-10-31T13:46:06;4.80;;;1.20;;
51382;SDS011;37475;43.358;1.248;2023-10-31T13:48:32;7.15;;;1.00;;
51382;SDS011;37475;43.358;1.248;2023-10-31T13:50:58;5.43;;;1.30;;
51382;SDS011;37475;43.358;1.248;2023-10-31T13:53:25;5.38;;;1.10;;
51382;SDS011;37475;43.358;1.248;2023-10-31T13:55:50;6.93;;;1.00;;
51382;SDS011;37475;43.358;1.248;2023-10-31T13:58:16;4.60;;;1.00;;
51382;SDS011;37475;43.358;1.248;2023-10-31T14:00:43;5.55;;;1.20;;
51382;SDS011;37475;43.358;1.248;2023-10-31T14:03:11;4.68;;;0.90;;
51382;SDS011;37475;43.358;1.248;2023-10-31T14:05:37;6.43;;;1.00;;
51382;SDS011;37475;43.358;1.248;2023-10-31T14:08:03;6.30;;;1.30;;
51382;SDS011;37475;43.358;1.248;2023-10-31T14:10:31;3.92;;;0.90;;
51382;SDS011;37475;43.358;1.248;2023-10-31T14:12:57;4.90;;;1.10;;
51382;SDS011;37475;43.358;1.248;2023-10-31T14:15:23;5.38;;;1.05;;
51382;SDS011;37475;43.358;1.248;2023-10-31T14:17:50;4.78;;;1.10;;
51382;SDS011;37475;43.358;1.248;2023-10-31T14:20:16;4.95;;;1.10;;
51382;SDS011;37475;43.358;1.248;2023-10-31T14:22:49;4.88;;;0.88;;
51382;SDS011;37475;43.358;1.248;2023-10-31T14:25:15;6.18;;;1.25;;
51382;SDS011;37475;43.358;1.248;2023-10-31T14:27:42;6.95;;;1.33;;
51382;SDS011;37475;43.358;1.248;2023-10-31T14:30:09;8.32;;;1.20;;
51382;SDS011;37475;43.358;1.248;2023-10-31T14:32:36;5.68;;;0.90;;
51382;SDS011;37475;43.358;1.248;2023-10-31T14:35:02;7.13;;;1.10;;
51382;SDS011;37475;43.358;1.248;2023-10-31T14:37:28;4.15;;;1.10;;
51382;SDS011;37475;43.358;1.248;2023-10-31T14:39:54;4.22;;;0.85;;
51382;SDS011;37475;43.358;1.248;2023-10-31T14:42:20;6.88;;;1.20;;
51382;SDS011;37475;43.358;1.248;2023-10-31T14:44:46;4.70;;;1.05;;
51382;SDS011;37475;43.358;1.248;2023-10-31T14:47:12;5.03;;;1.35;;
51382;SDS011;37475;43.358;1.248;2023-10-31T14:49:38;5.07;;;1.00;;
51382;SDS011;37475;43.358;1.248;2023-10-31T14:52:04;5.60;;;0.90;;
51382;SDS011;37475;43.358;1.248;2023-10-31T14:54:33;4.80;;;1.08;;